Terminal Aerodrome Forecast
Issued by NWS

Home | Current Version | Previous Version | Text Only | Print | Product List | Glossary On
Versions: 1 2 3 4 5 6 7 8 9 10 11 12 13 14 15 16
000
FTUS43 KEAX 150500
TAFSTJ
TAF
KSTJ 150520Z 1506/1606 11005KT P6SM BKN050
     FM150900 10005KT P6SM VCTS OVC035CB
     FM151200 VRB05KT P6SM BKN015
     FM151500 36010KT P6SM BKN025
     FM152000 03007KT P6SM SCT025=

USA.gov is the U.S. government's official web portal to all federal, state and local government web resources and services.